Time;durP1;ratioP1;P1;durP2;ratioP2;P2;SDS_P1;SDS_P2;PMS_P1;PMS_P2;Temp;Humidity;BMP_temperature;BMP_pressure;BME280_temperature;BME280_humidity;BME280_pressure;Samples;Min_cycle;Max_cycle;Signal;HPM_P1;HPM_P2
2022/10/16 00:02:35;;;;;;;39.28;23.40;;;;;;;;;;6171389;28;20030;-76
2022/10/16 00:05:39;;;;;;;37.15;23.50;;;;;;;;;;6171679;28;20097;-76
2022/10/16 00:08:40;;;;;;;39.22;23.17;;;;;;;;;;6171361;28;20018;-75
2022/10/16 00:11:41;;;;;;;33.27;22.10;;;;;;;;;;6170220;28;20019;-75
2022/10/16 00:14:43;;;;;;;39.80;23.63;;;;;;;;;;6196096;28;20026;-75
2022/10/16 00:17:43;;;;;;;34.00;22.27;;;;;;;;;;6174334;28;20023;-75
2022/10/16 00:20:44;;;;;;;37.60;24.47;;;;;;;;;;6170526;28;20387;-75
2022/10/16 00:23:44;;;;;;;35.63;22.37;;;;;;;;;;6170482;28;20392;-75
2022/10/16 00:26:44;;;;;;;34.00;21.03;;;;;;;;;;6171874;28;20053;-75
2022/10/16 00:29:44;;;;;;;37.80;21.93;;;;;;;;;;6185011;28;20026;-76
2022/10/16 00:32:44;;;;;;;36.08;20.42;;;;;;;;;;6172705;28;20023;-75
2022/10/16 00:35:45;;;;;;;31.40;18.55;;;;;;;;;;6171692;28;20027;-75
2022/10/16 00:38:45;;;;;;;38.03;22.70;;;;;;;;;;6168618;28;20030;-77
2022/10/16 00:41:45;;;;;;;34.40;21.90;;;;;;;;;;6179492;28;20414;-76
2022/10/16 00:44:47;;;;;;;33.73;20.87;;;;;;;;;;6177018;28;20057;-75
2022/10/16 00:47:49;;;;;;;34.80;20.88;;;;;;;;;;6171984;28;20062;-76
2022/10/16 00:50:49;;;;;;;34.65;18.85;;;;;;;;;;6170335;28;20022;-76
2022/10/16 00:53:50;;;;;;;30.70;19.27;;;;;;;;;;6171119;28;20015;-76
2022/10/16 00:56:50;;;;;;;31.20;18.20;;;;;;;;;;6171080;28;20022;-76
2022/10/16 00:59:50;;;;;;;37.40;22.17;;;;;;;;;;6172544;28;20015;-76
2022/10/16 01:02:54;;;;;;;36.70;23.03;;;;;;;;;;6188067;28;20015;-76
2022/10/16 01:06:00;;;;;;;37.28;22.15;;;;;;;;;;6157375;28;20015;-76
2022/10/16 01:09:00;;;;;;;35.72;19.50;;;;;;;;;;6174946;28;20030;-76
2022/10/16 01:12:06;;;;;;;31.88;21.23;;;;;;;;;;6174207;28;20007;-76
2022/10/16 01:15:11;;;;;;;37.70;22.88;;;;;;;;;;6176035;28;20268;-76
2022/10/16 01:18:20;;;;;;;34.10;19.88;;;;;;;;;;6176615;28;20038;-76
2022/10/16 01:21:26;;;;;;;36.30;20.38;;;;;;;;;;6175003;28;20520;-76
2022/10/16 01:24:32;;;;;;;35.50;19.25;;;;;;;;;;6173529;28;20467;-76
2022/10/16 01:27:34;;;;;;;35.85;20.30;;;;;;;;;;6167990;28;20058;-75
2022/10/16 01:30:36;;;;;;;33.95;19.33;;;;;;;;;;6166785;28;20053;-75
2022/10/16 01:33:42;;;;;;;34.53;21.00;;;;;;;;;;6175454;28;20030;-76
2022/10/16 01:36:46;;;;;;;28.92;20.70;;;;;;;;;;6176321;28;20046;-76
2022/10/16 01:39:48;;;;;;;34.90;20.23;;;;;;;;;;6174232;28;20041;-76
2022/10/16 01:42:52;;;;;;;28.67;18.73;;;;;;;;;;6175291;28;20471;-76
2022/10/16 01:45:52;;;;;;;32.72;20.08;;;;;;;;;;6176308;28;20046;-75
2022/10/16 01:48:53;;;;;;;34.63;21.30;;;;;;;;;;6168074;28;20034;-76
2022/10/16 01:51:55;;;;;;;39.67;21.37;;;;;;;;;;6169407;28;20019;-75
2022/10/16 01:54:56;;;;;;;36.83;21.25;;;;;;;;;;6176123;28;20019;-75
2022/10/16 01:57:58;;;;;;;37.60;21.43;;;;;;;;;;6189952;28;20019;-76
2022/10/16 02:00:58;;;;;;;33.50;21.05;;;;;;;;;;6173816;28;20023;-76
2022/10/16 02:04:01;;;;;;;33.03;22.33;;;;;;;;;;6175310;28;20130;-76
2022/10/16 02:07:02;;;;;;;41.67;22.90;;;;;;;;;;6173917;28;20030;-76
2022/10/16 02:10:02;;;;;;;40.03;22.83;;;;;;;;;;6170960;28;20514;-75
2022/10/16 02:13:07;;;;;;;38.33;24.37;;;;;;;;;;6156228;28;20011;-75
2022/10/16 02:16:09;;;;;;;39.58;23.80;;;;;;;;;;6174445;28;20019;-76
2022/10/16 02:19:10;;;;;;;38.45;23.88;;;;;;;;;;6173754;28;20027;-76
2022/10/16 02:22:15;;;;;;;44.67;25.30;;;;;;;;;;6175206;28;20022;-76
2022/10/16 02:25:20;;;;;;;34.40;21.35;;;;;;;;;;6175476;28;20098;-76
2022/10/16 02:28:24;;;;;;;40.97;23.73;;;;;;;;;;6172965;28;20050;-76
2022/10/16 02:31:29;;;;;;;40.97;22.63;;;;;;;;;;6173127;28;20438;-76
2022/10/16 02:34:31;;;;;;;37.38;21.48;;;;;;;;;;6170950;28;20045;-76
2022/10/16 02:37:32;;;;;;;39.35;22.58;;;;;;;;;;6171119;28;20011;-76
2022/10/16 02:40:33;;;;;;;37.00;23.47;;;;;;;;;;6168155;28;20023;-77
2022/10/16 02:43:33;;;;;;;40.73;24.57;;;;;;;;;;6173107;28;20027;-76
2022/10/16 02:46:34;;;;;;;38.17;23.03;;;;;;;;;;6172764;28;20105;-76
2022/10/16 02:49:34;;;;;;;35.43;21.90;;;;;;;;;;6171997;28;20486;-76
2022/10/16 02:52:34;;;;;;;40.63;24.83;;;;;;;;;;6189116;28;20097;-75
2022/10/16 02:55:34;;;;;;;40.17;23.63;;;;;;;;;;6160950;28;20138;-75
2022/10/16 02:58:34;;;;;;;39.28;24.33;;;;;;;;;;6171477;28;20030;-75
2022/10/16 03:01:35;;;;;;;43.57;22.90;;;;;;;;;;6179732;28;20057;-76
2022/10/16 03:04:35;;;;;;;35.18;21.62;;;;;;;;;;6175026;28;20717;-76
2022/10/16 03:07:35;;;;;;;36.67;21.27;;;;;;;;;;6174467;28;20126;-75
2022/10/16 03:10:35;;;;;;;36.53;22.33;;;;;;;;;;6166057;28;20029;-75
2022/10/16 03:13:35;;;;;;;35.35;21.15;;;;;;;;;;6166725;28;20011;-76
2022/10/16 03:16:35;;;;;;;38.36;23.14;;;;;;;;;;6173085;28;20662;-76
2022/10/16 03:19:36;;;;;;;39.45;23.85;;;;;;;;;;6167068;28;20018;-77
2022/10/16 03:22:36;;;;;;;39.33;24.52;;;;;;;;;;6168472;28;20107;-77
2022/10/16 03:25:36;;;;;;;41.27;23.60;;;;;;;;;;6172558;28;20065;-76
2022/10/16 03:28:36;;;;;;;37.60;23.37;;;;;;;;;;6163279;28;20031;-76
2022/10/16 03:31:37;;;;;;;37.08;22.95;;;;;;;;;;6173045;28;20062;-76
2022/10/16 03:34:37;;;;;;;41.37;23.67;;;;;;;;;;6161790;28;20029;-76
2022/10/16 03:37:37;;;;;;;38.53;21.73;;;;;;;;;;6164837;28;20023;-76
2022/10/16 03:40:40;;;;;;;40.87;23.43;;;;;;;;;;6162829;28;20031;-76
2022/10/16 03:43:40;;;;;;;33.70;21.15;;;;;;;;;;6172996;28;20017;-76
2022/10/16 03:46:40;;;;;;;34.78;22.15;;;;;;;;;;6165636;28;20400;-76
2022/10/16 03:49:41;;;;;;;32.75;21.70;;;;;;;;;;6172553;28;20438;-76
2022/10/16 03:52:41;;;;;;;30.62;19.94;;;;;;;;;;6187517;28;20018;-76
2022/10/16 03:55:42;;;;;;;28.75;19.17;;;;;;;;;;6180668;28;20076;-75
2022/10/16 03:58:42;;;;;;;30.03;19.63;;;;;;;;;;6174111;28;20026;-75
2022/10/16 04:01:42;;;;;;;30.55;19.05;;;;;;;;;;6173993;28;20467;-76
2022/10/16 04:04:42;;;;;;;30.27;19.53;;;;;;;;;;6168282;28;20015;-76
2022/10/16 04:07:42;;;;;;;29.37;18.47;;;;;;;;;;6172193;28;20023;-76
2022/10/16 04:10:43;;;;;;;32.05;19.30;;;;;;;;;;6165673;28;20086;-76
2022/10/16 04:13:43;;;;;;;27.87;18.77;;;;;;;;;;6169688;28;20030;-77
2022/10/16 04:16:44;;;;;;;36.17;21.45;;;;;;;;;;6191745;28;20018;-76
2022/10/16 04:19:44;;;;;;;33.13;20.80;;;;;;;;;;6184823;28;20026;-76
2022/10/16 04:22:44;;;;;;;32.73;18.23;;;;;;;;;;6185125;28;20034;-76
2022/10/16 04:25:44;;;;;;;39.53;21.83;;;;;;;;;;6176729;28;20084;-76
2022/10/16 04:28:44;;;;;;;33.58;20.17;;;;;;;;;;6182753;28;20031;-76
2022/10/16 04:31:45;;;;;;;35.03;20.83;;;;;;;;;;6173163;28;20274;-76
2022/10/16 04:34:45;;;;;;;35.75;22.02;;;;;;;;;;6173768;28;20769;-77
2022/10/16 04:37:45;;;;;;;31.92;21.05;;;;;;;;;;6181289;28;20106;-76
2022/10/16 04:40:45;;;;;;;38.27;22.83;;;;;;;;;;6190622;28;20446;-76
2022/10/16 04:43:45;;;;;;;33.30;21.35;;;;;;;;;;6189574;28;20064;-77
2022/10/16 04:46:46;;;;;;;39.33;22.60;;;;;;;;;;6178729;28;20401;-76
2022/10/16 04:49:46;;;;;;;35.97;19.38;;;;;;;;;;6166534;28;20033;-76
2022/10/16 04:52:46;;;;;;;29.85;18.75;;;;;;;;;;6176550;28;20034;-76
2022/10/16 04:55:46;;;;;;;35.35;20.65;;;;;;;;;;6175682;28;20023;-76
2022/10/16 04:58:47;;;;;;;31.48;20.00;;;;;;;;;;6175272;28;20034;-76
2022/10/16 05:01:47;;;;;;;34.47;20.90;;;;;;;;;;6185021;28;20046;-76
2022/10/16 05:04:47;;;;;;;35.00;19.17;;;;;;;;;;6172088;28;20085;-76
2022/10/16 05:07:49;;;;;;;29.88;20.25;;;;;;;;;;6177130;28;20023;-76
2022/10/16 05:10:49;;;;;;;34.70;21.55;;;;;;;;;;6173597;28;20026;-75
2022/10/16 05:13:49;;;;;;;32.40;20.83;;;;;;;;;;6159017;28;20047;-76
2022/10/16 05:16:50;;;;;;;36.43;19.97;;;;;;;;;;6175292;28;20361;-76
2022/10/16 05:19:50;;;;;;;33.67;20.47;;;;;;;;;;6158347;28;20066;-76
2022/10/16 05:22:50;;;;;;;35.70;22.58;;;;;;;;;;6183894;28;20061;-76
2022/10/16 05:25:58;;;;;;;34.30;21.63;;;;;;;;;;6168434;28;20061;-76
2022/10/16 05:28:58;;;;;;;32.45;20.35;;;;;;;;;;6173465;28;20053;-76
2022/10/16 05:31:58;;;;;;;32.10;20.35;;;;;;;;;;6185722;28;20015;-76
2022/10/16 05:34:59;;;;;;;35.13;20.48;;;;;;;;;;6186575;28;20289;-77
2022/10/16 05:38:00;;;;;;;33.50;20.58;;;;;;;;;;6184262;28;20340;-76
2022/10/16 05:41:00;;;;;;;28.93;20.33;;;;;;;;;;6180255;28;20843;-77
2022/10/16 05:44:03;;;;;;;35.55;20.08;;;;;;;;;;6175323;28;20039;-76
2022/10/16 05:47:03;;;;;;;32.75;19.02;;;;;;;;;;6170492;28;20031;-76
2022/10/16 05:50:04;;;;;;;31.27;20.73;;;;;;;;;;6173426;28;20022;-75
2022/10/16 05:53:04;;;;;;;31.27;19.55;;;;;;;;;;6188461;28;20773;-76
2022/10/16 05:56:05;;;;;;;34.87;19.77;;;;;;;;;;6183078;28;20089;-76
2022/10/16 05:59:05;;;;;;;36.33;21.67;;;;;;;;;;6160486;28;20026;-75
2022/10/16 06:02:06;;;;;;;39.53;21.33;;;;;;;;;;6183497;28;20447;-75
2022/10/16 06:05:06;;;;;;;32.23;18.90;;;;;;;;;;6174250;28;20019;-75
2022/10/16 06:08:06;;;;;;;27.37;18.50;;;;;;;;;;6174909;28;20215;-77
2022/10/16 06:11:08;;;;;;;29.92;17.98;;;;;;;;;;6155766;28;20114;-76
2022/10/16 06:14:08;;;;;;;24.83;16.88;;;;;;;;;;6174197;28;20019;-76
2022/10/16 06:17:09;;;;;;;28.92;15.70;;;;;;;;;;6174388;28;20093;-76
2022/10/16 06:20:09;;;;;;;26.00;14.93;;;;;;;;;;6167867;28;20046;-76
2022/10/16 06:23:09;;;;;;;27.98;17.25;;;;;;;;;;6175211;28;20479;-76
2022/10/16 06:26:10;;;;;;;27.07;16.53;;;;;;;;;;6174301;28;20094;-76
2022/10/16 06:29:10;;;;;;;23.92;16.35;;;;;;;;;;6172127;28;20035;-76
2022/10/16 06:32:11;;;;;;;23.00;17.47;;;;;;;;;;6168299;28;20038;-75
2022/10/16 06:35:11;;;;;;;29.88;17.23;;;;;;;;;;6174050;28;20023;-75
2022/10/16 06:38:11;;;;;;;27.58;16.50;;;;;;;;;;6186899;28;20022;-75
2022/10/16 06:41:12;;;;;;;27.40;15.17;;;;;;;;;;6175098;28;20503;-75
2022/10/16 06:44:12;;;;;;;28.90;18.87;;;;;;;;;;6173528;28;20062;-75
2022/10/16 06:47:12;;;;;;;28.17;17.45;;;;;;;;;;6174295;28;20796;-75
2022/10/16 06:50:13;;;;;;;26.90;19.10;;;;;;;;;;6159863;28;20034;-77
2022/10/16 06:53:13;;;;;;;25.10;17.10;;;;;;;;;;6173707;28;20467;-76
2022/10/16 06:56:15;;;;;;;23.13;15.90;;;;;;;;;;6186503;28;20007;-77
2022/10/16 06:59:15;;;;;;;23.27;14.80;;;;;;;;;;6173027;28;20081;-77
2022/10/16 07:02:15;;;;;;;22.30;15.87;;;;;;;;;;6171858;28;20026;-76
2022/10/16 07:05:16;;;;;;;25.30;16.80;;;;;;;;;;6152960;28;20526;-73
2022/10/16 07:08:16;;;;;;;25.03;15.83;;;;;;;;;;6162604;28;20503;-74
2022/10/16 07:11:18;;;;;;;20.77;13.73;;;;;;;;;;6170169;28;20022;-75
2022/10/16 07:14:19;;;;;;;20.20;14.18;;;;;;;;;;6163850;28;20030;-74
2022/10/16 07:17:21;;;;;;;22.95;13.52;;;;;;;;;;6163996;28;20026;-74
2022/10/16 07:20:21;;;;;;;18.38;12.98;;;;;;;;;;6169865;28;20026;-74
2022/10/16 07:23:21;;;;;;;18.33;12.93;;;;;;;;;;6162474;28;20023;-74
2022/10/16 07:26:22;;;;;;;23.93;12.33;;;;;;;;;;6169014;28;20030;-74
2022/10/16 07:29:22;;;;;;;22.17;14.75;;;;;;;;;;6161437;28;20082;-74
2022/10/16 07:32:23;;;;;;;22.43;15.23;;;;;;;;;;6168872;28;20025;-75
2022/10/16 07:35:23;;;;;;;20.38;14.40;;;;;;;;;;6169897;28;20465;-75
2022/10/16 07:38:23;;;;;;;21.85;13.50;;;;;;;;;;6164450;28;20014;-74
2022/10/16 07:41:24;;;;;;;24.43;14.97;;;;;;;;;;6164293;28;20015;-74
2022/10/16 07:44:24;;;;;;;30.60;16.10;;;;;;;;;;6151296;28;20514;-74
2022/10/16 07:47:24;;;;;;;23.52;15.73;;;;;;;;;;6171704;28;20022;-74
2022/10/16 07:50:24;;;;;;;18.52;13.00;;;;;;;;;;6165375;28;20019;-74
2022/10/16 07:53:24;;;;;;;20.95;13.40;;;;;;;;;;6165197;28;20029;-75
2022/10/16 07:56:25;;;;;;;21.80;12.73;;;;;;;;;;6181421;28;20391;-75
2022/10/16 07:59:25;;;;;;;20.83;12.67;;;;;;;;;;6161005;28;20403;-74
2022/10/16 08:02:25;;;;;;;22.10;13.07;;;;;;;;;;6168456;28;20061;-75
2022/10/16 08:05:26;;;;;;;21.63;12.83;;;;;;;;;;6171220;28;20015;-75
2022/10/16 08:08:26;;;;;;;;;;;;;;;;;;6172057;28;20015;-75
2022/10/16 08:11:27;;;;;;;18.05;11.85;;;;;;;;;;6159780;28;19911;-75
2022/10/16 08:14:27;;;;;;;19.57;12.10;;;;;;;;;;6170220;28;20026;-74
2022/10/16 08:17:27;;;;;;;17.58;10.55;;;;;;;;;;6172321;28;20422;-74
2022/10/16 08:20:28;;;;;;;16.92;10.45;;;;;;;;;;6170574;28;20669;-74
2022/10/16 08:23:28;;;;;;;15.40;10.88;;;;;;;;;;6170501;28;20117;-74
2022/10/16 08:26:28;;;;;;;14.07;10.10;;;;;;;;;;6160012;28;20097;-74
2022/10/16 08:29:28;;;;;;;14.00;9.37;;;;;;;;;;6166963;28;20018;-75
2022/10/16 08:32:28;;;;;;;15.13;10.77;;;;;;;;;;6164879;28;20007;-74
2022/10/16 08:35:29;;;;;;;13.50;9.47;;;;;;;;;;6148530;28;20047;-76
2022/10/16 08:38:29;;;;;;;17.42;9.70;;;;;;;;;;6170963;28;20011;-75
2022/10/16 08:41:48;;;;;;;13.83;9.40;;;;;;;;;;6170105;28;20027;-76
2022/10/16 08:44:59;;;;;;;14.43;9.95;;;;;;;;;;6160645;28;20055;-74
2022/10/16 08:48:17;;;;;;;14.35;8.27;;;;;;;;;;6168254;28;20077;-74
2022/10/16 08:51:22;;;;;;;13.65;9.30;;;;;;;;;;6170139;28;20460;-75
2022/10/16 08:54:29;;;;;;;14.85;8.20;;;;;;;;;;6155729;28;20042;-74
2022/10/16 08:57:31;;;;;;;12.65;8.27;;;;;;;;;;6165785;28;20042;-74
2022/10/16 09:00:32;;;;;;;14.13;8.25;;;;;;;;;;6165615;28;20034;-74
2022/10/16 09:03:32;;;;;;;;;;;;;;;;;;6170164;28;20029;-75
2022/10/16 09:06:39;;;;;;;13.57;8.45;;;;;;;;;;6169344;28;19910;-76
2022/10/16 09:09:47;;;;;;;11.30;6.88;;;;;;;;;;6175079;28;20106;-74
2022/10/16 09:13:06;;;;;;;10.60;6.72;;;;;;;;;;6168955;28;20026;-75
2022/10/16 09:16:25;;;;;;;10.38;6.22;;;;;;;;;;6168655;28;20502;-75
2022/10/16 09:19:33;;;;;;;13.50;6.82;;;;;;;;;;6166928;28;20023;-76
2022/10/16 09:22:34;;;;;;;14.38;8.05;;;;;;;;;;6156197;28;20435;-75
2022/10/16 09:25:34;;;;;;;13.47;7.90;;;;;;;;;;6156756;28;20046;-75
2022/10/16 09:28:34;;;;;;;12.07;7.32;;;;;;;;;;6169569;28;20034;-75
2022/10/16 09:31:36;;;;;;;12.97;8.33;;;;;;;;;;6172900;28;20563;-75
2022/10/16 09:34:36;;;;;;;;;;;;;;;;;;6168620;28;20019;-75
2022/10/16 09:37:36;;;;;;;13.07;9.13;;;;;;;;;;6176053;28;20305;-76
2022/10/16 09:40:38;;;;;;;13.10;7.63;;;;;;;;;;6157681;28;20438;-75
2022/10/16 09:43:56;;;;;;;11.45;7.75;;;;;;;;;;6176673;28;20026;-75
2022/10/16 09:47:01;;;;;;;12.50;8.50;;;;;;;;;;6166028;28;20039;-75
2022/10/16 09:50:05;;;;;;;14.57;7.50;;;;;;;;;;6158704;28;20023;-75
2022/10/16 09:53:05;;;;;;;11.02;7.65;;;;;;;;;;6156326;28;20471;-76
2022/10/16 09:56:06;;;;;;;17.60;8.25;;;;;;;;;;6157302;28;20027;-76
2022/10/16 09:59:13;;;;;;;11.75;7.82;;;;;;;;;;6174677;28;20018;-75
2022/10/16 10:02:15;;;;;;;13.32;7.70;;;;;;;;;;6175544;28;20486;-76
2022/10/16 10:05:15;;;;;;;;;;;;;;;;;;6174709;28;20091;-75
2022/10/16 10:08:17;;;;;;;15.27;8.52;;;;;;;;;;6174953;28;20228;-75
2022/10/16 10:11:17;;;;;;;13.65;9.10;;;;;;;;;;6179199;28;20109;-75
2022/10/16 10:14:30;;;;;;;13.17;8.40;;;;;;;;;;6182066;28;20100;-75
2022/10/16 10:17:30;;;;;;;14.68;8.88;;;;;;;;;;6176666;28;20027;-76
2022/10/16 10:20:34;;;;;;;14.60;9.33;;;;;;;;;;6177017;28;20054;-75
2022/10/16 10:23:34;;;;;;;15.50;8.60;;;;;;;;;;6179733;28;20030;-75
2022/10/16 10:26:35;;;;;;;10.90;7.47;;;;;;;;;;6152509;28;20518;-76
2022/10/16 10:29:56;;;;;;;11.75;7.93;;;;;;;;;;6152386;28;20078;-76
2022/10/16 10:33:11;;;;;;;13.13;7.88;;;;;;;;;;6163411;28;20039;-76
2022/10/16 10:36:21;;;;;;;12.10;7.72;;;;;;;;;;6166991;28;20526;-75
2022/10/16 10:39:43;;;;;;;10.00;6.63;;;;;;;;;;6162184;28;20446;-75
2022/10/16 10:43:03;;;;;;;14.90;6.53;;;;;;;;;;6151935;28;20026;-75
2022/10/16 10:46:05;;;;;;;14.15;6.22;;;;;;;;;;6156520;28;20046;-75
2022/10/16 10:49:11;;;;;;;10.27;6.10;;;;;;;;;;6161809;28;20020;-75
2022/10/16 10:52:33;;;;;;;12.60;6.35;;;;;;;;;;6166510;28;20027;-76
2022/10/16 10:55:45;;;;;;;11.43;6.13;;;;;;;;;;6159373;28;20088;-75
2022/10/16 10:59:01;;;;;;;10.32;5.97;;;;;;;;;;6148310;28;20490;-76
2022/10/16 11:02:10;;;;;;;9.73;5.38;;;;;;;;;;6158699;28;20264;-75
2022/10/16 11:05:29;;;;;;;10.65;6.20;;;;;;;;;;6155084;28;20035;-75
2022/10/16 11:08:35;;;;;;;11.40;5.93;;;;;;;;;;6166196;28;20034;-75
2022/10/16 11:11:40;;;;;;;11.07;6.35;;;;;;;;;;6157303;28;20023;-75
2022/10/16 11:14:43;;;;;;;14.95;5.70;;;;;;;;;;6162991;28;20117;-75
2022/10/16 11:17:43;;;;;;;8.38;5.93;;;;;;;;;;6165298;28;20380;-75
2022/10/16 11:20:44;;;;;;;9.68;5.47;;;;;;;;;;6163328;28;20383;-75
2022/10/16 11:23:44;;;;;;;11.67;6.27;;;;;;;;;;6172205;28;20106;-76
2022/10/16 11:26:46;;;;;;;9.27;5.97;;;;;;;;;;6170238;28;20456;-76
2022/10/16 11:29:53;;;;;;;10.32;6.07;;;;;;;;;;6170024;28;20078;-76
2022/10/16 11:33:02;;;;;;;11.20;6.15;;;;;;;;;;6172022;28;20023;-75
2022/10/16 11:36:03;;;;;;;9.20;6.13;;;;;;;;;;6167736;28;20031;-75
2022/10/16 11:39:20;;;;;;;10.88;6.20;;;;;;;;;;6167319;28;20049;-75
2022/10/16 11:42:38;;;;;;;12.32;6.43;;;;;;;;;;6148890;28;20019;-74
2022/10/16 11:46:04;;;;;;;10.82;5.72;;;;;;;;;;6170021;28;20039;-75
2022/10/16 11:49:11;;;;;;;13.85;7.28;;;;;;;;;;6165113;28;20050;-75
2022/10/16 11:52:16;;;;;;;14.23;7.53;;;;;;;;;;6167511;28;20058;-74
2022/10/16 11:55:19;;;;;;;11.75;6.32;;;;;;;;;;6164121;28;20034;-75
2022/10/16 11:58:19;;;;;;;12.38;6.05;;;;;;;;;;6164403;28;20046;-74
2022/10/16 12:01:40;;;;;;;12.73;6.38;;;;;;;;;;6167157;28;20026;-74
2022/10/16 12:04:45;;;;;;;10.50;6.00;;;;;;;;;;6166823;28;20085;-74
2022/10/16 12:07:54;;;;;;;14.13;6.45;;;;;;;;;;6162370;28;20290;-74
2022/10/16 12:11:06;;;;;;;8.90;5.60;;;;;;;;;;6171096;28;20034;-75
2022/10/16 12:14:26;;;;;;;11.95;6.10;;;;;;;;;;6148114;28;20130;-74
2022/10/16 12:17:37;;;;;;;9.40;6.10;;;;;;;;;;6117329;28;20080;-76
2022/10/16 12:20:38;;;;;;;11.18;5.97;;;;;;;;;;6158593;28;20030;-74
2022/10/16 12:23:46;;;;;;;9.43;6.03;;;;;;;;;;6153556;28;20015;-75
2022/10/16 12:26:48;;;;;;;10.18;6.85;;;;;;;;;;6157533;28;20014;-75
2022/10/16 12:29:54;;;;;;;11.80;6.35;;;;;;;;;;6154372;28;20161;-75
2022/10/16 12:33:05;;;;;;;9.98;6.53;;;;;;;;;;6142418;28;20015;-75
2022/10/16 12:36:25;;;;;;;10.55;6.20;;;;;;;;;;6160976;28;20340;-74
2022/10/16 12:39:27;;;;;;;8.55;5.85;;;;;;;;;;6154538;28;20023;-74
2022/10/16 12:42:27;;;;;;;9.95;6.07;;;;;;;;;;6169110;28;20015;-75
2022/10/16 12:45:32;;;;;;;12.70;6.07;;;;;;;;;;6158255;28;20054;-74
2022/10/16 12:48:32;;;;;;;9.82;6.13;;;;;;;;;;6158438;28;20028;-75
2022/10/16 12:51:32;;;;;;;11.23;6.00;;;;;;;;;;6161135;28;20073;-74
2022/10/16 12:54:37;;;;;;;11.88;6.00;;;;;;;;;;6131361;28;20027;-74
2022/10/16 12:57:37;;;;;;;8.60;5.65;;;;;;;;;;6169749;28;20371;-74
2022/10/16 13:00:55;;;;;;;10.13;6.20;;;;;;;;;;6152580;28;20023;-75
2022/10/16 13:04:04;;;;;;;14.02;8.20;;;;;;;;;;6164197;28;20026;-75
2022/10/16 13:07:10;;;;;;;10.88;6.82;;;;;;;;;;6174303;28;20023;-75
2022/10/16 13:10:20;;;;;;;10.98;6.65;;;;;;;;;;6158532;28;20072;-75
2022/10/16 13:13:29;;;;;;;10.48;6.00;;;;;;;;;;6174333;28;20026;-75
2022/10/16 13:16:58;;;;;;;11.30;6.57;;;;;;;;;;6162887;28;20111;-75
2022/10/16 13:20:19;;;;;;;10.98;6.90;;;;;;;;;;6149336;28;20033;-75
2022/10/16 13:23:25;;;;;;;11.88;6.47;;;;;;;;;;6158301;28;20046;-75
2022/10/16 13:26:44;;;;;;;12.30;6.78;;;;;;;;;;6159694;28;20536;-75
2022/10/16 13:29:44;;;;;;;10.88;7.13;;;;;;;;;;6160098;28;20548;-75
2022/10/16 13:32:47;;;;;;;10.83;6.27;;;;;;;;;;6161817;28;20037;-75
2022/10/16 13:35:51;;;;;;;12.57;7.15;;;;;;;;;;6144557;28;20023;-75
2022/10/16 13:39:10;;;;;;;11.02;7.72;;;;;;;;;;6170760;28;20015;-75
2022/10/16 13:42:23;;;;;;;12.27;6.47;;;;;;;;;;6164647;28;20023;-75
2022/10/16 13:45:27;;;;;;;14.82;7.65;;;;;;;;;;6172037;28;20054;-75
2022/10/16 13:48:28;;;;;;;12.35;7.15;;;;;;;;;;6170198;28;20015;-75
2022/10/16 13:51:29;;;;;;;10.98;7.45;;;;;;;;;;6163265;28;20027;-75
2022/10/16 13:54:30;;;;;;;12.35;6.90;;;;;;;;;;6172713;28;20026;-75
2022/10/16 13:57:30;;;;;;;15.07;8.13;;;;;;;;;;6156049;28;20019;-76
2022/10/16 14:00:31;;;;;;;11.00;7.00;;;;;;;;;;6161285;28;20506;-75
2022/10/16 14:03:33;;;;;;;13.30;8.07;;;;;;;;;;6144371;28;20018;-75
2022/10/16 14:06:34;;;;;;;12.05;7.43;;;;;;;;;;6160732;28;20023;-75
2022/10/16 14:09:36;;;;;;;13.63;7.72;;;;;;;;;;6173627;28;20023;-76
2022/10/16 14:12:36;;;;;;;12.70;7.80;;;;;;;;;;6142619;28;20590;-75
2022/10/16 14:15:36;;;;;;;10.53;7.10;;;;;;;;;;6173318;28;20492;-75
2022/10/16 14:18:37;;;;;;;10.33;6.83;;;;;;;;;;6159088;28;20125;-75
2022/10/16 14:21:40;;;;;;;14.70;7.32;;;;;;;;;;6174602;28;20023;-75
2022/10/16 14:24:40;;;;;;;15.15;8.05;;;;;;;;;;6175628;28;20516;-75
2022/10/16 14:27:40;;;;;;;14.87;7.93;;;;;;;;;;6168890;28;20026;-76
2022/10/16 14:30:57;;;;;;;13.23;7.73;;;;;;;;;;6166410;28;20055;-75
2022/10/16 14:33:59;;;;;;;13.55;8.02;;;;;;;;;;6171648;28;20475;-76
2022/10/16 14:37:10;;;;;;;12.50;7.53;;;;;;;;;;6173198;28;19999;-75
2022/10/16 14:40:14;;;;;;;13.10;6.97;;;;;;;;;;6155372;28;20012;-75
2022/10/16 14:43:15;;;;;;;17.58;7.57;;;;;;;;;;6166928;28;20023;-75
2022/10/16 14:46:15;;;;;;;;;;;;;;;;;;6169065;28;20042;-75
2022/10/16 14:49:20;;;;;;;14.25;7.70;;;;;;;;;;6170486;28;19917;-75
2022/10/16 14:52:20;;;;;;;13.57;8.07;;;;;;;;;;6164787;28;20015;-75
2022/10/16 14:55:21;;;;;;;15.73;9.63;;;;;;;;;;6167349;28;20083;-75
2022/10/16 14:58:22;;;;;;;15.73;8.47;;;;;;;;;;6168196;28;20073;-76
2022/10/16 15:01:22;;;;;;;;;;;;;;;;;;6165978;28;20062;-75
2022/10/16 15:04:22;;;;;;;15.10;8.77;;;;;;;;;;6156675;28;19984;-75
2022/10/16 15:07:23;;;;;;;17.90;10.00;;;;;;;;;;6154770;28;20027;-75
2022/10/16 15:10:24;;;;;;;16.10;9.23;;;;;;;;;;6162403;28;20022;-75
2022/10/16 15:13:24;;;;;;;15.13;9.30;;;;;;;;;;6163445;28;20069;-76
2022/10/16 15:16:24;;;;;;;14.57;9.07;;;;;;;;;;6161740;28;20012;-75
2022/10/16 15:19:25;;;;;;;12.93;8.67;;;;;;;;;;6159445;28;20015;-76
2022/10/16 15:22:25;;;;;;;14.38;9.00;;;;;;;;;;6160044;28;20041;-75
2022/10/16 15:25:29;;;;;;;14.60;8.73;;;;;;;;;;6155521;28;20015;-75
2022/10/16 15:28:29;;;;;;;14.27;8.18;;;;;;;;;;6155735;28;20023;-75
2022/10/16 15:31:29;;;;;;;14.00;9.17;;;;;;;;;;6161267;28;20023;-75
2022/10/16 15:34:29;;;;;;;14.63;10.53;;;;;;;;;;6154823;28;20538;-74
2022/10/16 15:37:30;;;;;;;14.87;10.80;;;;;;;;;;6159165;28;20015;-74
2022/10/16 15:40:30;;;;;;;21.17;9.98;;;;;;;;;;6163366;28;20022;-74
2022/10/16 15:43:30;;;;;;;15.97;10.10;;;;;;;;;;6160193;28;20044;-75
2022/10/16 15:46:30;;;;;;;15.55;9.13;;;;;;;;;;6159001;28;20139;-75
2022/10/16 15:49:31;;;;;;;16.67;10.73;;;;;;;;;;6162704;28;20028;-75
2022/10/16 15:52:31;;;;;;;15.77;10.50;;;;;;;;;;6161959;28;20074;-76
2022/10/16 15:55:33;;;;;;;19.10;12.17;;;;;;;;;;6169242;28;20082;-75
2022/10/16 15:58:34;;;;;;;18.02;12.50;;;;;;;;;;6161906;28;20022;-75
2022/10/16 16:01:34;;;;;;;23.00;12.17;;;;;;;;;;6154506;28;20470;-75
2022/10/16 16:04:35;;;;;;;20.70;13.68;;;;;;;;;;6154708;28;20062;-76
2022/10/16 16:07:36;;;;;;;28.40;14.70;;;;;;;;;;6156224;28;20046;-75
2022/10/16 16:10:36;;;;;;;29.53;15.40;;;;;;;;;;6147195;28;20027;-75
2022/10/16 16:13:39;;;;;;;20.83;13.90;;;;;;;;;;6155527;28;20023;-75
2022/10/16 16:16:41;;;;;;;26.23;15.75;;;;;;;;;;6157234;28;20025;-75
2022/10/16 16:19:41;;;;;;;21.98;13.95;;;;;;;;;;6157236;28;20089;-75
2022/10/16 16:22:41;;;;;;;25.53;16.73;;;;;;;;;;6161730;28;20402;-75
2022/10/16 16:25:41;;;;;;;25.37;17.50;;;;;;;;;;6156471;28;20534;-75
2022/10/16 16:28:42;;;;;;;28.57;18.37;;;;;;;;;;6159265;28;20030;-75
2022/10/16 16:31:43;;;;;;;31.00;19.83;;;;;;;;;;6163122;28;20019;-74
2022/10/16 16:34:43;;;;;;;31.10;21.70;;;;;;;;;;6161138;28;20015;-74
2022/10/16 16:37:43;;;;;;;37.90;25.70;;;;;;;;;;6164208;28;20050;-75
2022/10/16 16:40:43;;;;;;;40.90;24.77;;;;;;;;;;6157764;28;20375;-74
2022/10/16 16:43:43;;;;;;;38.00;23.33;;;;;;;;;;6164622;28;20478;-75
2022/10/16 16:46:44;;;;;;;41.90;26.17;;;;;;;;;;6166372;28;20102;-74
2022/10/16 16:49:46;;;;;;;36.47;21.30;;;;;;;;;;6162698;28;20022;-74
2022/10/16 16:52:46;;;;;;;;;;;;;;;;;;6158092;28;20089;-75
2022/10/16 16:55:46;;;;;;;34.13;20.35;;;;;;;;;;6172919;28;19910;-75
2022/10/16 16:58:46;;;;;;;37.10;23.33;;;;;;;;;;6159336;28;20667;-75
2022/10/16 17:01:47;;;;;;;39.03;25.23;;;;;;;;;;6171943;28;20133;-74
2022/10/16 17:04:47;;;;;;;42.73;24.20;;;;;;;;;;6169240;28;20035;-74
2022/10/16 17:07:47;;;;;;;47.58;28.42;;;;;;;;;;6158612;28;20514;-75
2022/10/16 17:10:52;;;;;;;42.80;25.85;;;;;;;;;;6158506;28;20105;-75
2022/10/16 17:13:53;;;;;;;39.33;25.63;;;;;;;;;;6166736;28;20511;-76
2022/10/16 17:16:54;;;;;;;45.45;27.13;;;;;;;;;;6164044;28;20034;-75
2022/10/16 17:19:54;;;;;;;48.50;25.90;;;;;;;;;;6160307;28;20101;-76
2022/10/16 17:22:54;;;;;;;53.05;31.40;;;;;;;;;;6158770;28;20114;-76
2022/10/16 17:25:54;;;;;;;63.33;36.70;;;;;;;;;;6158836;28;20487;-76
2022/10/16 17:28:56;;;;;;;64.27;39.50;;;;;;;;;;6169868;28;20023;-75
2022/10/16 17:31:58;;;;;;;92.32;57.72;;;;;;;;;;6161270;28;20031;-75
2022/10/16 17:34:58;;;;;;;111.13;65.82;;;;;;;;;;6162009;28;20531;-76
2022/10/16 17:37:58;;;;;;;168.80;97.53;;;;;;;;;;6165190;28;20031;-76
2022/10/16 17:40:58;;;;;;;113.15;76.07;;;;;;;;;;6142867;28;20524;-76
2022/10/16 17:43:58;;;;;;;100.47;64.97;;;;;;;;;;6171681;28;20023;-75
2022/10/16 17:46:59;;;;;;;112.57;71.10;;;;;;;;;;6165473;28;20027;-75
2022/10/16 17:49:59;;;;;;;94.03;61.90;;;;;;;;;;6161602;28;20030;-75
2022/10/16 17:52:59;;;;;;;95.60;56.13;;;;;;;;;;6165724;28;20077;-76